createdAt,value
2022-10-15T00:01:53.854Z,11.83
2022-10-15T00:04:22.480Z,11.86
2022-10-15T00:06:50.864Z,11.85
2022-10-15T00:09:19.423Z,11.86
2022-10-15T00:11:47.844Z,11.98
2022-10-15T00:14:16.472Z,12.05
2022-10-15T00:16:46.806Z,12.13
2022-10-15T00:19:15.408Z,12.20
2022-10-15T00:21:43.909Z,12.21
2022-10-15T00:24:12.417Z,11.94
2022-10-15T00:26:40.850Z,11.97
2022-10-15T00:29:09.583Z,11.90
2022-10-15T00:31:38.127Z,11.91
2022-10-15T00:34:08.610Z,11.91
2022-10-15T00:36:38.699Z,11.82
2022-10-15T00:39:08.633Z,11.90
2022-10-15T00:41:40.288Z,11.96
2022-10-15T00:44:42.142Z,11.99
2022-10-15T00:47:16.030Z,11.98
2022-10-15T00:49:50.476Z,12.07
2022-10-15T00:52:24.107Z,12.12
2022-10-15T00:55:01.243Z,12.15
2022-10-15T00:57:32.105Z,12.25
2022-10-15T01:00:06.705Z,12.22
2022-10-15T01:02:35.418Z,12.29
2022-10-15T01:05:06.131Z,12.30
2022-10-15T01:07:34.742Z,12.33
2022-10-15T01:10:04.949Z,12.15
2022-10-15T01:13:00.374Z,12.15
2022-10-15T01:15:34.819Z,12.10
2022-10-15T01:18:09.420Z,11.92
2022-10-15T01:21:02.868Z,11.74
2022-10-15T01:24:00.731Z,11.70
2022-10-15T01:27:19.895Z,11.75
2022-10-15T01:30:09.533Z,11.78
2022-10-15T01:32:47.960Z,11.75
2022-10-15T01:35:26.051Z,11.73
2022-10-15T01:38:01.454Z,11.65
2022-10-15T01:40:36.041Z,11.64
2022-10-15T01:43:07.480Z,11.64
2022-10-15T01:45:42.113Z,11.70
2022-10-15T01:48:14.170Z,11.76
2022-10-15T01:50:47.182Z,11.80
2022-10-15T01:53:19.155Z,11.77
2022-10-15T01:55:49.263Z,11.74
2022-10-15T01:58:19.396Z,11.65
2022-10-15T02:00:49.944Z,11.64
2022-10-15T02:03:20.412Z,11.64
2022-10-15T02:05:54.542Z,11.64
2022-10-15T02:08:30.194Z,11.64
2022-10-15T02:11:04.627Z,11.65
2022-10-15T02:13:43.843Z,11.65
2022-10-15T02:16:15.715Z,11.52
2022-10-15T02:18:53.200Z,11.60
2022-10-15T02:21:27.786Z,11.54
2022-10-15T02:24:01.556Z,11.53
2022-10-15T02:26:32.205Z,11.45
2022-10-15T02:29:03.814Z,11.47
2022-10-15T02:31:37.272Z,11.39
2022-10-15T02:34:10.945Z,11.44
2022-10-15T02:36:42.612Z,11.54
2022-10-15T02:39:14.802Z,11.58
2022-10-15T02:41:44.835Z,11.64
2022-10-15T02:44:13.191Z,11.66
2022-10-15T02:46:41.755Z,11.52
2022-10-15T02:49:11.677Z,11.33
2022-10-15T02:51:40.235Z,11.23
2022-10-15T02:54:09.803Z,11.23
2022-10-15T02:56:39.964Z,11.25
2022-10-15T02:59:12.626Z,11.36
2022-10-15T03:01:41.099Z,11.32
2022-10-15T03:04:11.763Z,11.23
2022-10-15T03:06:40.333Z,11.31
2022-10-15T03:09:08.815Z,11.34
2022-10-15T03:11:37.518Z,11.28
2022-10-15T03:14:06.080Z,11.27
2022-10-15T03:16:34.678Z,11.17
2022-10-15T03:19:03.273Z,11.07
2022-10-15T03:21:33.331Z,11.08
2022-10-15T03:24:01.879Z,11.07
2022-10-15T03:26:30.355Z,11.10
2022-10-15T03:28:59.063Z,11.10
2022-10-15T03:31:27.749Z,11.09
2022-10-15T03:33:56.324Z,11.09
2022-10-15T03:36:24.858Z,11.09
2022-10-15T03:38:54.844Z,11.00
2022-10-15T03:41:23.422Z,10.90
2022-10-15T03:43:51.924Z,10.96
2022-10-15T03:46:20.388Z,10.94
2022-10-15T03:48:50.952Z,10.90
2022-10-15T03:51:23.467Z,10.95
2022-10-15T03:53:55.694Z,10.98
2022-10-15T03:56:24.163Z,11.01
2022-10-15T03:58:52.748Z,11.04
2022-10-15T04:01:21.416Z,11.03
2022-10-15T04:03:53.630Z,11.05
2022-10-15T04:06:22.524Z,10.98
2022-10-15T04:11:22.250Z,11.03
2022-10-15T04:13:51.464Z,11.02
2022-10-15T04:16:20.034Z,11.02
2022-10-15T04:18:48.636Z,11.00
2022-10-15T04:21:17.165Z,10.95
2022-10-15T04:23:45.638Z,10.97
2022-10-15T04:26:14.193Z,10.94
2022-10-15T04:28:44.561Z,10.87
2022-10-15T04:31:13.143Z,10.89
2022-10-15T04:33:41.821Z,10.91
2022-10-15T04:36:14.468Z,10.97
2022-10-15T04:38:43.309Z,10.96
2022-10-15T04:41:13.547Z,10.98
2022-10-15T04:43:43.673Z,10.97
2022-10-15T04:46:12.331Z,10.98
2022-10-15T04:48:43.189Z,10.95
2022-10-15T04:51:14.604Z,10.94
2022-10-15T04:53:43.084Z,10.90
2022-10-15T04:56:15.705Z,10.84
2022-10-15T04:58:47.529Z,10.92
2022-10-15T05:01:18.584Z,10.86
2022-10-15T05:03:48.619Z,10.92
2022-10-15T05:06:19.038Z,10.93
2022-10-15T05:08:48.684Z,10.99
2022-10-15T05:11:19.086Z,11.05
2022-10-15T05:13:49.409Z,11.07
2022-10-15T05:16:19.351Z,11.10
2022-10-15T05:18:49.972Z,11.11
2022-10-15T05:21:19.603Z,11.14
2022-10-15T05:23:50.317Z,11.19
2022-10-15T05:26:21.280Z,11.20
2022-10-15T05:28:52.273Z,11.25
2022-10-15T05:31:23.013Z,11.26
2022-10-15T05:33:53.056Z,11.24
2022-10-15T05:36:24.049Z,11.28
2022-10-15T05:38:54.855Z,11.27
2022-10-15T05:41:24.473Z,11.35
2022-10-15T05:43:56.515Z,11.38
2022-10-15T05:46:26.032Z,11.38
2022-10-15T05:48:56.164Z,11.36
2022-10-15T05:51:25.942Z,11.36
2022-10-15T05:53:55.278Z,11.35
2022-10-15T05:56:24.257Z,11.42
2022-10-15T05:58:54.307Z,11.45
2022-10-15T06:01:23.466Z,11.54
2022-10-15T06:03:52.147Z,11.58
2022-10-15T06:06:22.165Z,11.64
2022-10-15T06:08:51.838Z,11.61
2022-10-15T06:11:21.313Z,11.70
2022-10-15T06:13:49.795Z,11.77
2022-10-15T06:16:23.592Z,11.80
2022-10-15T06:18:53.908Z,11.85
2022-10-15T06:21:22.584Z,11.92
2022-10-15T06:23:51.031Z,11.97
2022-10-15T06:26:19.723Z,12.00
2022-10-15T06:28:48.463Z,12.02
2022-10-15T06:31:18.511Z,12.02
2022-10-15T06:33:47.028Z,12.12
2022-10-15T06:36:15.726Z,12.15
2022-10-15T06:38:45.098Z,12.19
2022-10-15T06:41:14.917Z,12.20
2022-10-15T06:43:43.491Z,12.24
2022-10-15T06:46:12.122Z,12.28
2022-10-15T06:48:42.039Z,12.28
2022-10-15T06:51:10.907Z,12.40
2022-10-15T06:53:42.413Z,12.40
2022-10-15T06:56:11.121Z,12.46
2022-10-15T06:58:39.693Z,12.48
2022-10-15T07:01:10.346Z,12.51
2022-10-15T07:03:39.372Z,12.53
2022-10-15T07:06:11.164Z,12.55
2022-10-15T07:08:39.588Z,12.49
2022-10-15T07:11:09.595Z,12.61
2022-10-15T07:13:38.475Z,12.67
2022-10-15T07:16:07.676Z,12.71
2022-10-15T07:18:36.403Z,12.77
2022-10-15T07:21:06.844Z,12.83
2022-10-15T07:23:37.450Z,12.87
2022-10-15T07:26:06.136Z,12.95
2022-10-15T07:28:34.695Z,13.01
2022-10-15T07:31:04.702Z,13.04
2022-10-15T07:33:34.537Z,13.05
2022-10-15T07:36:05.047Z,13.11
2022-10-15T07:38:33.688Z,13.18
2022-10-15T07:41:04.662Z,13.22
2022-10-15T07:43:33.172Z,13.29
2022-10-15T07:46:01.672Z,13.35
2022-10-15T07:48:30.485Z,13.40
2022-10-15T07:51:00.472Z,13.48
2022-10-15T07:53:29.526Z,13.55
2022-10-15T07:56:01.363Z,13.64
2022-10-15T07:58:31.494Z,13.75
2022-10-15T08:01:01.847Z,13.82
2022-10-15T08:03:30.855Z,13.90
2022-10-15T08:06:01.827Z,13.95
2022-10-15T08:08:30.373Z,14.04
2022-10-15T08:10:59.184Z,14.10
2022-10-15T08:13:27.675Z,14.15
2022-10-15T08:16:00.352Z,14.22
2022-10-15T08:18:29.168Z,14.27
2022-10-15T08:21:00.908Z,14.31
2022-10-15T08:23:29.928Z,14.40
2022-10-15T08:25:59.638Z,14.53
2022-10-15T08:28:28.409Z,14.63
2022-10-15T08:31:02.788Z,14.67
2022-10-15T08:33:34.659Z,14.74
2022-10-15T08:36:03.671Z,14.81
2022-10-15T08:38:32.683Z,14.86
2022-10-15T08:41:03.122Z,14.90
2022-10-15T08:43:37.255Z,14.93
2022-10-15T08:46:11.247Z,14.99
2022-10-15T08:48:43.627Z,15.06
2022-10-15T08:51:15.680Z,15.09
2022-10-15T08:53:48.716Z,15.11
2022-10-15T08:56:22.273Z,15.15
2022-10-15T08:59:01.003Z,15.15
2022-10-15T09:01:37.061Z,15.20
2022-10-15T09:04:16.369Z,15.24
2022-10-15T09:06:45.280Z,15.17
2022-10-15T09:09:23.882Z,15.24
2022-10-15T09:12:01.103Z,15.20
2022-10-15T09:14:32.880Z,15.23
2022-10-15T09:17:07.919Z,15.23
2022-10-15T09:19:38.003Z,15.27
2022-10-15T09:22:07.037Z,15.30
2022-10-15T09:24:35.944Z,15.30
2022-10-15T09:27:10.624Z,15.32
2022-10-15T09:29:45.761Z,15.39
2022-10-15T09:32:23.110Z,15.39
2022-10-15T09:35:00.537Z,15.38
2022-10-15T09:37:35.060Z,15.42
2022-10-15T09:40:31.548Z,15.47
2022-10-15T09:43:01.778Z,15.52
2022-10-15T09:45:30.425Z,15.53
2022-10-15T09:48:03.241Z,15.59
2022-10-15T09:50:41.206Z,15.65
2022-10-15T09:53:23.318Z,15.67
2022-10-15T09:56:02.023Z,15.68
2022-10-15T09:58:35.451Z,15.69
2022-10-15T10:01:06.578Z,15.75
2022-10-15T10:03:38.360Z,15.79
2022-10-15T10:06:09.271Z,15.83
2022-10-15T10:08:41.113Z,15.90
2022-10-15T10:11:13.077Z,15.96
2022-10-15T10:13:47.264Z,15.99
2022-10-15T10:16:19.272Z,16.04
2022-10-15T10:19:05.411Z,16.07
2022-10-15T10:21:35.945Z,16.10
2022-10-15T10:24:39.498Z,16.12
2022-10-15T10:27:20.190Z,16.16
2022-10-15T10:29:54.317Z,16.18
2022-10-15T10:32:25.279Z,16.24
2022-10-15T10:34:56.181Z,16.23
2022-10-15T10:37:25.014Z,16.25
2022-10-15T10:39:55.183Z,16.30
2022-10-15T10:42:41.452Z,16.37
2022-10-15T10:45:20.433Z,16.41
2022-10-15T10:47:49.280Z,16.49
2022-10-15T10:50:40.854Z,16.54
2022-10-15T10:53:24.665Z,16.58
2022-10-15T10:55:56.079Z,16.65
2022-10-15T10:58:27.133Z,16.71
2022-10-15T11:00:56.950Z,16.80
2022-10-15T11:03:33.232Z,16.84
2022-10-15T11:06:13.799Z,16.89
2022-10-15T11:08:49.340Z,16.96
2022-10-15T11:11:25.917Z,17.00
2022-10-15T11:14:05.989Z,17.02
2022-10-15T11:16:44.315Z,17.06
2022-10-15T11:19:50.786Z,17.10
2022-10-15T11:22:51.293Z,17.14
2022-10-15T11:25:28.968Z,17.18
2022-10-15T11:28:20.402Z,17.23
2022-10-15T11:30:56.352Z,17.21
2022-10-15T11:33:55.870Z,17.24
2022-10-15T11:36:45.920Z,17.28
2022-10-15T11:39:29.182Z,17.26
2022-10-15T11:42:07.207Z,17.26
2022-10-15T11:44:54.675Z,17.30
2022-10-15T11:47:35.081Z,17.32
2022-10-15T11:50:18.767Z,17.40
2022-10-15T11:53:09.363Z,17.48
2022-10-15T11:55:43.734Z,17.47
2022-10-15T11:58:30.693Z,17.54
2022-10-15T12:01:06.948Z,17.58
2022-10-15T12:03:42.373Z,17.59
2022-10-15T12:06:15.056Z,17.57
2022-10-15T12:08:45.588Z,17.67
2022-10-15T12:11:28.973Z,17.73
2022-10-15T12:14:04.031Z,17.68
2022-10-15T12:16:41.381Z,17.60
2022-10-15T12:19:16.779Z,17.68
2022-10-15T12:22:01.977Z,17.76
2022-10-15T12:24:53.832Z,17.78
2022-10-15T12:27:37.527Z,17.80
2022-10-15T12:30:34.543Z,17.76
2022-10-15T12:33:05.767Z,17.81
2022-10-15T12:35:39.049Z,17.85
2022-10-15T12:38:23.480Z,17.83
2022-10-15T12:41:03.276Z,17.84
2022-10-15T12:43:35.944Z,17.91
2022-10-15T12:46:06.398Z,18.01
2022-10-15T12:48:37.544Z,18.09
2022-10-15T12:51:35.284Z,18.13
2022-10-15T12:54:03.794Z,18.14
2022-10-15T12:56:41.908Z,18.15
2022-10-15T12:59:54.356Z,18.09
2022-10-15T13:02:39.627Z,18.16
2022-10-15T13:05:10.433Z,18.17
2022-10-15T13:07:42.024Z,18.13
2022-10-15T13:10:21.861Z,18.13
2022-10-15T13:12:55.273Z,18.07
2022-10-15T13:15:28.378Z,18.05
2022-10-15T13:17:59.412Z,18.04
2022-10-15T13:20:36.103Z,18.06
2022-10-15T13:23:29.037Z,18.05
2022-10-15T13:26:25.034Z,18.08
2022-10-15T13:28:55.351Z,18.10
2022-10-15T13:31:30.335Z,18.10
2022-10-15T13:34:03.115Z,18.11
2022-10-15T13:36:33.720Z,18.04
2022-10-15T13:39:05.480Z,17.96
2022-10-15T13:41:37.656Z,17.93
2022-10-15T13:44:06.720Z,17.94
2022-10-15T13:46:39.912Z,17.96
2022-10-15T13:49:14.190Z,17.93
2022-10-15T13:51:44.971Z,17.76
2022-10-15T13:54:19.085Z,17.76
2022-10-15T13:56:53.691Z,17.67
2022-10-15T13:59:23.639Z,17.52
2022-10-15T14:02:01.009Z,17.52
2022-10-15T14:04:31.781Z,17.43
2022-10-15T14:07:03.030Z,17.47
2022-10-15T14:09:34.221Z,17.54
2022-10-15T14:12:03.810Z,17.56
2022-10-15T14:14:35.452Z,17.67
2022-10-15T14:17:08.073Z,17.68
2022-10-15T14:19:38.680Z,17.79
2022-10-15T14:22:08.083Z,17.86
2022-10-15T14:24:38.824Z,17.84
2022-10-15T14:27:09.153Z,17.75
2022-10-15T14:29:41.226Z,17.76
2022-10-15T14:32:26.894Z,17.64
2022-10-15T14:34:56.711Z,17.50
2022-10-15T14:37:43.312Z,17.45
2022-10-15T14:40:18.694Z,17.40
2022-10-15T14:42:48.607Z,17.42
2022-10-15T14:45:25.542Z,17.34
2022-10-15T14:47:58.129Z,17.30
2022-10-15T14:50:28.557Z,17.23
2022-10-15T14:52:58.063Z,17.15
2022-10-15T14:55:33.601Z,17.12
2022-10-15T14:58:08.648Z,17.15
2022-10-15T15:00:42.048Z,17.03
2022-10-15T15:03:17.207Z,16.94
2022-10-15T15:05:47.821Z,16.95
2022-10-15T15:08:18.052Z,16.91
2022-10-15T15:13:21.574Z,16.74
2022-10-15T15:15:52.338Z,16.80
2022-10-15T15:18:22.651Z,16.69
2022-10-15T15:20:53.187Z,16.72
2022-10-15T15:23:24.034Z,16.65
2022-10-15T15:25:53.533Z,16.63
2022-10-15T15:28:24.225Z,16.66
2022-10-15T15:30:57.549Z,16.67
2022-10-15T15:33:28.497Z,16.62
2022-10-15T15:36:03.137Z,16.61
2022-10-15T15:38:32.112Z,16.52
2022-10-15T15:41:05.318Z,16.42
2022-10-15T15:43:33.910Z,16.38
2022-10-15T15:46:02.390Z,16.39
2022-10-15T15:48:32.520Z,16.40
2022-10-15T15:51:04.490Z,16.29
2022-10-15T15:53:33.076Z,16.31
2022-10-15T15:56:01.762Z,16.32
2022-10-15T15:58:30.591Z,16.31
2022-10-15T16:00:59.362Z,16.28
2022-10-15T16:03:27.843Z,16.31
2022-10-15T16:05:57.886Z,16.28
2022-10-15T16:08:26.373Z,16.14
2022-10-15T16:10:55.228Z,16.23
2022-10-15T16:13:24.036Z,16.15
2022-10-15T16:15:52.621Z,16.22
2022-10-15T16:18:21.315Z,16.08
2022-10-15T16:20:50.502Z,16.07
2022-10-15T16:23:20.626Z,16.11
2022-10-15T16:25:49.111Z,16.12
2022-10-15T16:28:18.049Z,16.11
2022-10-15T16:30:47.114Z,16.18
2022-10-15T16:33:15.701Z,16.14
2022-10-15T16:35:45.060Z,16.15
2022-10-15T16:38:13.589Z,16.10
2022-10-15T16:40:47.134Z,16.12
2022-10-15T16:43:15.880Z,16.12
2022-10-15T16:45:49.180Z,16.15
2022-10-15T16:48:17.769Z,16.16
2022-10-15T16:50:46.751Z,16.14
2022-10-15T16:53:15.357Z,16.14
2022-10-15T16:55:45.451Z,16.13
2022-10-15T16:58:13.935Z,16.14
2022-10-15T17:00:42.460Z,16.14
2022-10-15T17:03:12.613Z,16.14
2022-10-15T17:05:41.166Z,16.09
2022-10-15T17:08:13.031Z,16.15
2022-10-15T17:10:45.610Z,16.14
2022-10-15T17:13:14.067Z,16.13
2022-10-15T17:15:42.543Z,16.13
2022-10-15T17:18:10.989Z,16.13
2022-10-15T17:20:45.387Z,16.10
2022-10-15T17:23:13.907Z,16.03
2022-10-15T17:25:42.523Z,16.01
2022-10-15T17:28:14.773Z,16.00
2022-10-15T17:30:43.577Z,16.05
2022-10-15T17:33:12.115Z,15.95
2022-10-15T17:35:40.684Z,15.93
2022-10-15T17:38:09.321Z,15.94
2022-10-15T17:40:37.944Z,15.96
2022-10-15T17:43:06.488Z,16.10
2022-10-15T17:45:36.467Z,16.07
2022-10-15T17:48:04.952Z,15.89
2022-10-15T17:50:33.450Z,15.94
2022-10-15T17:53:03.517Z,15.84
2022-10-15T17:55:32.293Z,15.87
2022-10-15T17:58:00.727Z,15.90
2022-10-15T18:00:29.515Z,15.88
2022-10-15T18:02:59.621Z,15.90
2022-10-15T18:05:28.050Z,15.76
2022-10-15T18:07:56.474Z,15.80
2022-10-15T18:10:24.995Z,15.73
2022-10-15T18:12:53.557Z,15.81
2022-10-15T18:15:22.871Z,15.84
2022-10-15T18:17:51.288Z,15.79
2022-10-15T18:20:21.205Z,15.80
2022-10-15T18:22:49.613Z,15.79
2022-10-15T18:25:18.228Z,15.78
2022-10-15T18:27:46.721Z,15.79
2022-10-15T18:30:15.707Z,15.78
2022-10-15T18:32:44.208Z,15.74
2022-10-15T18:35:12.728Z,15.78
2022-10-15T18:37:42.877Z,15.84
2022-10-15T18:40:12.634Z,15.84
2022-10-15T18:42:41.108Z,15.82
2022-10-15T18:45:10.142Z,15.80
2022-10-15T18:47:38.593Z,15.75
2022-10-15T18:50:08.880Z,15.72
2022-10-15T18:52:40.725Z,15.74
2022-10-15T18:55:13.054Z,15.74
2022-10-15T18:57:41.485Z,15.66
2022-10-15T19:00:11.084Z,15.69
2022-10-15T19:02:39.888Z,15.70
2022-10-15T19:05:09.052Z,15.67
2022-10-15T19:07:37.533Z,15.62
2022-10-15T19:10:06.667Z,15.53
2022-10-15T19:12:36.561Z,15.52
2022-10-15T19:15:05.332Z,15.57
2022-10-15T19:17:33.777Z,15.51
2022-10-15T19:20:02.223Z,15.54
2022-10-15T19:22:31.305Z,15.52
2022-10-15T19:24:59.805Z,15.44
2022-10-15T19:27:28.335Z,15.54
2022-10-15T19:29:58.237Z,15.88
2022-10-15T19:32:26.732Z,16.23
2022-10-15T19:34:55.214Z,16.39
2022-10-15T19:37:24.333Z,16.25
2022-10-15T19:39:53.222Z,16.08
2022-10-15T19:42:21.634Z,15.96
2022-10-15T19:44:50.403Z,15.84
2022-10-15T19:47:21.338Z,15.76
2022-10-15T19:49:51.366Z,15.75
2022-10-15T19:52:20.106Z,15.60
2022-10-15T19:54:48.580Z,15.60
2022-10-15T19:57:17.312Z,15.58
2022-10-15T19:59:45.729Z,15.55
2022-10-15T20:02:14.202Z,15.55
2022-10-15T20:04:44.129Z,15.56
2022-10-15T20:07:12.647Z,15.54
2022-10-15T20:09:41.299Z,15.53
2022-10-15T20:12:10.809Z,15.59
2022-10-15T20:14:39.292Z,15.57
2022-10-15T20:17:07.717Z,15.59
2022-10-15T20:19:36.255Z,15.54
2022-10-15T20:22:06.176Z,15.51
2022-10-15T20:24:34.617Z,15.46
2022-10-15T20:27:03.144Z,15.48
2022-10-15T20:29:31.629Z,15.41
2022-10-15T20:32:10.601Z,15.37
2022-10-15T20:34:45.336Z,15.32
2022-10-15T20:37:17.349Z,15.31
2022-10-15T20:39:45.910Z,15.24
2022-10-15T20:42:14.641Z,15.22
2022-10-15T20:44:43.237Z,15.19
2022-10-15T20:47:16.329Z,15.15
2022-10-15T20:49:48.149Z,15.12
2022-10-15T20:52:18.103Z,15.10
2022-10-15T20:54:46.747Z,15.05
2022-10-15T20:57:16.361Z,15.02
2022-10-15T20:59:44.908Z,15.00
2022-10-15T21:02:13.384Z,14.94
2022-10-15T21:04:42.236Z,14.92
2022-10-15T21:07:11.029Z,14.92
2022-10-15T21:09:41.021Z,14.95
2022-10-15T21:12:10.718Z,14.96
2022-10-15T21:14:39.484Z,14.94
2022-10-15T21:17:08.186Z,14.92
2022-10-15T21:19:36.783Z,14.90
2022-10-15T21:22:05.824Z,14.89
2022-10-15T21:24:35.529Z,14.86
2022-10-15T21:27:05.935Z,14.82
2022-10-15T21:29:34.408Z,14.71
2022-10-15T21:32:03.003Z,14.71
2022-10-15T21:34:31.925Z,14.69
2022-10-15T21:37:00.426Z,14.72
2022-10-15T21:39:29.051Z,14.69
2022-10-15T21:41:57.675Z,14.81
2022-10-15T21:44:27.760Z,14.88
2022-10-15T21:46:56.323Z,14.83
2022-10-15T21:49:25.258Z,14.79
2022-10-15T21:51:53.679Z,14.75
2022-10-15T21:54:22.232Z,14.65
2022-10-15T21:56:50.972Z,14.60
2022-10-15T21:59:19.512Z,14.57
2022-10-15T22:01:49.733Z,14.55
2022-10-15T22:04:18.199Z,14.52
2022-10-15T22:06:46.702Z,14.42
2022-10-15T22:09:15.162Z,14.40
2022-10-15T22:11:44.657Z,14.39
2022-10-15T22:14:14.753Z,14.38
2022-10-15T22:16:43.837Z,14.36
2022-10-15T22:19:16.447Z,14.35
2022-10-15T22:21:45.215Z,14.29
2022-10-15T22:24:16.005Z,14.28
2022-10-15T22:26:46.953Z,14.31
2022-10-15T22:29:20.498Z,14.30
2022-10-15T22:31:49.825Z,14.33
2022-10-15T22:34:20.404Z,14.33
2022-10-15T22:36:49.141Z,14.34
2022-10-15T22:39:19.071Z,14.36
2022-10-15T22:41:48.949Z,14.35
2022-10-15T22:44:19.806Z,14.39
2022-10-15T22:46:49.766Z,14.41
2022-10-15T22:49:21.778Z,14.37
2022-10-15T22:51:51.521Z,14.37
2022-10-15T22:54:22.583Z,14.39
2022-10-15T22:56:52.130Z,14.41
2022-10-15T22:59:21.155Z,14.42
2022-10-15T23:01:49.703Z,14.42
2022-10-15T23:04:20.193Z,14.49
2022-10-15T23:06:48.806Z,14.55
2022-10-15T23:09:18.228Z,14.56
2022-10-15T23:11:47.445Z,14.59
2022-10-15T23:14:17.702Z,14.55
2022-10-15T23:16:47.791Z,14.56
2022-10-15T23:19:18.396Z,14.53
2022-10-15T23:21:50.419Z,14.52
2022-10-15T23:24:20.976Z,14.45
2022-10-15T23:26:49.792Z,14.46
2022-10-15T23:29:20.241Z,14.56
2022-10-15T23:31:49.575Z,14.79
2022-10-15T23:34:19.510Z,14.70
2022-10-15T23:36:50.176Z,14.59
2022-10-15T23:39:21.608Z,14.57
2022-10-15T23:41:50.350Z,14.51
2022-10-15T23:44:20.881Z,14.50
2022-10-15T23:46:49.435Z,14.48
2022-10-15T23:49:18.457Z,14.46
2022-10-15T23:51:50.225Z,14.38
2022-10-15T23:54:19.907Z,14.36
2022-10-15T23:56:49.058Z,14.31
2022-10-15T23:59:18.546Z,14.19
